sensor_id;sensor_type;location;lat;lon;timestamp;pressure;altitude;pressure_sealevel;temperature;humidity
65553;BME280;52465;51.560;14.368;2023-04-01T00:01:13;98436.22;;;11.64;67.92
65553;BME280;52465;51.560;14.368;2023-04-01T00:03:39;98441.03;;;11.67;68.24
65553;BME280;52465;51.560;14.368;2023-04-01T00:06:09;98442.03;;;11.66;68.07
65553;BME280;52465;51.560;14.368;2023-04-01T00:08:36;98430.75;;;11.65;67.85
65553;BME280;52465;51.560;14.368;2023-04-01T00:11:05;98433.16;;;11.67;68.03
65553;BME280;52465;51.560;14.368;2023-04-01T00:13:30;98416.47;;;11.55;67.93
65553;BME280;52465;51.560;14.368;2023-04-01T00:15:57;98431.38;;;11.61;68.20
65553;BME280;52465;51.560;14.368;2023-04-01T00:18:23;98400.59;;;11.43;68.01
65553;BME280;52465;51.560;14.368;2023-04-01T00:20:51;98433.38;;;11.65;68.24
65553;BME280;52465;51.560;14.368;2023-04-01T00:23:37;98434.41;;;11.64;68.00
65553;BME280;52465;51.560;14.368;2023-04-01T00:26:21;98428.56;;;11.56;68.12
65553;BME280;52465;51.560;14.368;2023-04-01T00:28:50;98419.72;;;11.57;67.87
65553;BME280;52465;51.560;14.368;2023-04-01T00:31:16;98422.94;;;11.59;67.82
65553;BME280;52465;51.560;14.368;2023-04-01T00:33:41;98428.34;;;11.64;67.84
65553;BME280;52465;51.560;14.368;2023-04-01T00:36:12;98437.22;;;11.63;67.98
65553;BME280;52465;51.560;14.368;2023-04-01T00:38:37;98428.56;;;11.62;68.16
65553;BME280;52465;51.560;14.368;2023-04-01T00:41:06;98424.94;;;11.63;67.93
65553;BME280;52465;51.560;14.368;2023-04-01T00:43:32;98430.38;;;11.62;67.79
65553;BME280;52465;51.560;14.368;2023-04-01T00:45:58;98428.16;;;11.59;67.62
65553;BME280;52465;51.560;14.368;2023-04-01T00:48:27;98417.09;;;11.57;68.19
65553;BME280;52465;51.560;14.368;2023-04-01T00:53:19;98392.16;;;11.41;67.83
65553;BME280;52465;51.560;14.368;2023-04-01T00:55:57;98423.94;;;11.58;67.97
65553;BME280;52465;51.560;14.368;2023-04-01T01:03:19;98418.38;;;11.41;69.28
65553;BME280;52465;51.560;14.368;2023-04-01T01:09:00;98426.13;;;11.61;68.70
65553;BME280;52465;51.560;14.368;2023-04-01T01:16:59;98427.75;;;11.62;68.44
65553;BME280;52465;51.560;14.368;2023-04-01T01:27:52;98437.22;;;11.63;68.26
65553;BME280;52465;51.560;14.368;2023-04-01T01:33:47;98412.06;;;11.49;67.87
65553;BME280;52465;51.560;14.368;2023-04-01T01:36:17;98432.41;;;11.60;68.17
65553;BME280;52465;51.560;14.368;2023-04-01T01:38:44;98412.88;;;11.49;67.95
65553;BME280;52465;51.560;14.368;2023-04-01T01:41:13;98422.53;;;11.55;68.45
65553;BME280;52465;51.560;14.368;2023-04-01T01:43:43;98399.41;;;11.39;67.98
65553;BME280;52465;51.560;14.368;2023-04-01T01:46:13;98430.19;;;11.57;68.11
65553;BME280;52465;51.560;14.368;2023-04-01T01:48:40;98431.00;;;11.57;67.81
65553;BME280;52465;51.560;14.368;2023-04-01T01:51:09;98433.63;;;11.57;68.01
65553;BME280;52465;51.560;14.368;2023-04-01T01:53:36;98432.81;;;11.57;67.95
65553;BME280;52465;51.560;14.368;2023-04-01T01:56:02;98411.88;;;11.44;68.04
65553;BME280;52465;51.560;14.368;2023-04-01T02:00:53;98415.31;;;11.44;67.84
65553;BME280;52465;51.560;14.368;2023-04-01T02:03:21;98433.81;;;11.56;67.93
65553;BME280;52465;51.560;14.368;2023-04-01T02:05:50;98424.38;;;11.48;67.96
65553;BME280;52465;51.560;14.368;2023-04-01T02:08:47;98389.59;;;11.21;67.84
65553;BME280;52465;51.560;14.368;2023-04-01T02:11:19;98416.94;;;11.45;68.21
65553;BME280;52465;51.560;14.368;2023-04-01T02:14:05;98438.69;;;11.52;67.95
65553;BME280;52465;51.560;14.368;2023-04-01T02:16:37;98437.06;;;11.51;68.16
65553;BME280;52465;51.560;14.368;2023-04-01T02:19:22;98436.88;;;11.53;67.96
65553;BME280;52465;51.560;14.368;2023-04-01T02:21:55;98421.56;;;11.43;67.86
65553;BME280;52465;51.560;14.368;2023-04-01T02:24:30;98433.03;;;11.49;67.86
65553;BME280;52465;51.560;14.368;2023-04-01T02:26:57;98431.66;;;11.46;67.58
65553;BME280;52465;51.560;14.368;2023-04-01T02:29:23;98403.31;;;11.23;67.99
65553;BME280;52465;51.560;14.368;2023-04-01T02:31:52;98444.94;;;11.51;68.16
65553;BME280;52465;51.560;14.368;2023-04-01T02:34:24;98440.69;;;11.50;67.96
65553;BME280;52465;51.560;14.368;2023-04-01T02:36:53;98446.94;;;11.49;68.04
65553;BME280;52465;51.560;14.368;2023-04-01T02:39:20;98428.63;;;11.43;68.08
65553;BME280;52465;51.560;14.368;2023-04-01T02:42:04;98424.81;;;11.38;67.73
65553;BME280;52465;51.560;14.368;2023-04-01T02:44:30;98443.53;;;11.49;67.99
65553;BME280;52465;51.560;14.368;2023-04-01T02:46:56;98413.97;;;11.28;68.14
65553;BME280;52465;51.560;14.368;2023-04-01T02:49:22;98425.63;;;11.32;67.89
65553;BME280;52465;51.560;14.368;2023-04-01T02:51:47;98453.00;;;11.43;67.78
65553;BME280;52465;51.560;14.368;2023-04-01T02:54:13;98461.66;;;11.44;67.99
65553;BME280;52465;51.560;14.368;2023-04-01T02:56:38;98459.25;;;11.49;68.01
65553;BME280;52465;51.560;14.368;2023-04-01T02:59:04;98455.81;;;11.48;67.93
65553;BME280;52465;51.560;14.368;2023-04-01T03:01:30;98454.25;;;11.41;68.03
65553;BME280;52465;51.560;14.368;2023-04-01T03:03:57;98473.94;;;11.50;67.99
65553;BME280;52465;51.560;14.368;2023-04-01T03:06:22;98472.34;;;11.49;67.89
65553;BME280;52465;51.560;14.368;2023-04-01T03:08:47;98462.09;;;11.41;68.26
65553;BME280;52465;51.560;14.368;2023-04-01T03:11:13;98478.38;;;11.49;68.23
65553;BME280;52465;51.560;14.368;2023-04-01T03:13:39;98473.34;;;11.48;67.90
65553;BME280;52465;51.560;14.368;2023-04-01T03:16:04;98456.66;;;11.42;68.32
65553;BME280;52465;51.560;14.368;2023-04-01T03:18:30;98476.78;;;11.48;68.09
65553;BME280;52465;51.560;14.368;2023-04-01T03:20:55;98472.56;;;11.47;68.03
65553;BME280;52465;51.560;14.368;2023-04-01T03:23:20;98459.66;;;11.39;68.14
65553;BME280;52465;51.560;14.368;2023-04-01T03:25:47;98464.09;;;11.38;68.05
65553;BME280;52465;51.560;14.368;2023-04-01T03:28:12;98473.56;;;11.46;68.22
65553;BME280;52465;51.560;14.368;2023-04-01T03:30:39;98479.63;;;11.47;67.90
65553;BME280;52465;51.560;14.368;2023-04-01T03:33:05;98463.31;;;11.31;68.34
65553;BME280;52465;51.560;14.368;2023-04-01T03:35:30;98483.25;;;11.46;67.98
65553;BME280;52465;51.560;14.368;2023-04-01T03:37:57;98389.47;;;10.83;68.25
65553;BME280;52465;51.560;14.368;2023-04-01T03:40:23;98476.19;;;11.46;68.27
65553;BME280;52465;51.560;14.368;2023-04-01T03:42:49;98479.44;;;11.42;68.16
65553;BME280;52465;51.560;14.368;2023-04-01T03:45:14;98472.19;;;11.37;68.19
65553;BME280;52465;51.560;14.368;2023-04-01T03:47:40;98418.47;;;11.01;67.92
65553;BME280;52465;51.560;14.368;2023-04-01T03:50:06;98476.38;;;11.45;67.92
65553;BME280;52465;51.560;14.368;2023-04-01T03:52:33;98457.09;;;11.26;68.00
65553;BME280;52465;51.560;14.368;2023-04-01T03:54:59;98491.50;;;11.43;67.74
65553;BME280;52465;51.560;14.368;2023-04-01T03:57:25;98498.97;;;11.46;68.23
65553;BME280;52465;51.560;14.368;2023-04-01T03:59:53;98471.00;;;11.26;68.17
65553;BME280;52465;51.560;14.368;2023-04-01T04:02:19;98505.19;;;11.45;67.96
65553;BME280;52465;51.560;14.368;2023-04-01T04:04:45;98496.53;;;11.44;68.10
65553;BME280;52465;51.560;14.368;2023-04-01T04:07:11;98477.66;;;11.29;67.89
65553;BME280;52465;51.560;14.368;2023-04-01T04:09:37;98492.91;;;11.38;68.03
65553;BME280;52465;51.560;14.368;2023-04-01T04:12:02;98476.84;;;11.22;68.06
65553;BME280;52465;51.560;14.368;2023-04-01T04:14:31;98504.59;;;11.43;68.13
65553;BME280;52465;51.560;14.368;2023-04-01T04:16:58;98503.81;;;11.42;68.36
65553;BME280;52465;51.560;14.368;2023-04-01T04:19:23;98492.91;;;11.38;68.12
65553;BME280;52465;51.560;14.368;2023-04-01T04:21:48;98505.84;;;11.40;67.95
65553;BME280;52465;51.560;14.368;2023-04-01T04:24:14;98486.91;;;11.31;68.12
65553;BME280;52465;51.560;14.368;2023-04-01T04:26:40;98502.59;;;11.38;68.13
65553;BME280;52465;51.560;14.368;2023-04-01T04:29:05;98492.34;;;11.30;68.30
65553;BME280;52465;51.560;14.368;2023-04-01T04:31:31;98504.63;;;11.36;68.03
65553;BME280;52465;51.560;14.368;2023-04-01T04:33:58;98504.19;;;11.39;68.23
65553;BME280;52465;51.560;14.368;2023-04-01T04:36:24;98498.41;;;11.30;67.96
65553;BME280;52465;51.560;14.368;2023-04-01T04:38:49;98513.50;;;11.42;68.28
65553;BME280;52465;51.560;14.368;2023-04-01T04:41:17;98509.69;;;11.31;67.85
65553;BME280;52465;51.560;14.368;2023-04-01T04:43:48;98509.06;;;11.35;68.20
65553;BME280;52465;51.560;14.368;2023-04-01T04:46:17;98498.19;;;11.25;67.69
65553;BME280;52465;51.560;14.368;2023-04-01T04:48:43;98489.72;;;11.17;68.34
65553;BME280;52465;51.560;14.368;2023-04-01T04:51:27;98526.00;;;11.39;67.91
65553;BME280;52465;51.560;14.368;2023-04-01T04:54:11;98505.03;;;11.26;67.92
65553;BME280;52465;51.560;14.368;2023-04-01T04:56:36;98536.47;;;11.39;68.22
65553;BME280;52465;51.560;14.368;2023-04-01T04:59:02;98529.41;;;11.33;68.02
65553;BME280;52465;51.560;14.368;2023-04-01T05:01:27;98535.66;;;11.39;67.97
65553;BME280;52465;51.560;14.368;2023-04-01T05:03:52;98547.13;;;11.38;68.21
65553;BME280;52465;51.560;14.368;2023-04-01T05:06:18;98537.47;;;11.38;68.03
65553;BME280;52465;51.560;14.368;2023-04-01T05:08:44;98546.97;;;11.39;68.19
65553;BME280;52465;51.560;14.368;2023-04-01T05:11:15;98538.47;;;11.37;68.23
65553;BME280;52465;51.560;14.368;2023-04-01T05:13:52;98502.66;;;11.11;67.96
65553;BME280;52465;51.560;14.368;2023-04-01T05:16:19;98537.09;;;11.28;68.00
65553;BME280;52465;51.560;14.368;2023-04-01T05:18:45;98515.75;;;11.18;68.04
65553;BME280;52465;51.560;14.368;2023-04-01T05:21:13;98526.41;;;11.23;68.03
65553;BME280;52465;51.560;14.368;2023-04-01T05:23:39;98550.56;;;11.38;68.16
65553;BME280;52465;51.560;14.368;2023-04-01T05:26:08;98544.53;;;11.31;68.11
65553;BME280;52465;51.560;14.368;2023-04-01T05:28:53;98549.38;;;11.34;68.07
65553;BME280;52465;51.560;14.368;2023-04-01T05:31:18;98550.19;;;11.35;68.11
65553;BME280;52465;51.560;14.368;2023-04-01T05:33:44;98547.56;;;11.35;67.93
65553;BME280;52465;51.560;14.368;2023-04-01T05:36:13;98546.75;;;11.34;68.29
65553;BME280;52465;51.560;14.368;2023-04-01T05:38:41;98561.03;;;11.38;68.02
65553;BME280;52465;51.560;14.368;2023-04-01T05:41:07;98565.09;;;11.34;67.94
65553;BME280;52465;51.560;14.368;2023-04-01T05:43:36;98558.63;;;11.37;68.13
65553;BME280;52465;51.560;14.368;2023-04-01T05:46:02;98532.06;;;11.20;68.11
65553;BME280;52465;51.560;14.368;2023-04-01T05:48:28;98552.59;;;11.30;68.23
65553;BME280;52465;51.560;14.368;2023-04-01T05:50:53;98563.06;;;11.36;68.22
65553;BME280;52465;51.560;14.368;2023-04-01T05:53:19;98557.41;;;11.33;68.30
65553;BME280;52465;51.560;14.368;2023-04-01T05:55:44;98565.28;;;11.33;67.81
65553;BME280;52465;51.560;14.368;2023-04-01T05:58:10;98571.94;;;11.35;68.26
65553;BME280;52465;51.560;14.368;2023-04-01T06:00:35;98570.94;;;11.36;68.09
65553;BME280;52465;51.560;14.368;2023-04-01T06:03:01;98547.75;;;11.20;68.17
65553;BME280;52465;51.560;14.368;2023-04-01T06:05:29;98585.03;;;11.35;67.99
65553;BME280;52465;51.560;14.368;2023-04-01T06:07:59;98577.41;;;11.34;68.22
65553;BME280;52465;51.560;14.368;2023-04-01T06:13:30;98564.91;;;11.23;67.91
65553;BME280;52465;51.560;14.368;2023-04-01T06:16:07;98569.50;;;11.27;68.08
65553;BME280;52465;51.560;14.368;2023-04-01T06:21:30;98583.63;;;11.26;67.89
65553;BME280;52465;51.560;14.368;2023-04-01T06:27:16;98594.91;;;11.33;68.02
65553;BME280;52465;51.560;14.368;2023-04-01T06:30:02;98597.53;;;11.33;67.89
65553;BME280;52465;51.560;14.368;2023-04-01T06:32:58;98554.63;;;11.08;68.11
65553;BME280;52465;51.560;14.368;2023-04-01T06:40:57;98605.38;;;11.33;68.05
65553;BME280;52465;51.560;14.368;2023-04-01T06:46:44;98609.00;;;11.32;68.24
65553;BME280;52465;51.560;14.368;2023-04-01T06:52:26;98611.84;;;11.31;67.92
65553;BME280;52465;51.560;14.368;2023-04-01T06:55:02;98610.63;;;11.33;67.97
65553;BME280;52465;51.560;14.368;2023-04-01T06:57:43;98614.06;;;11.34;68.03
65553;BME280;52465;51.560;14.368;2023-04-01T07:00:14;98619.50;;;11.32;68.19
65553;BME280;52465;51.560;14.368;2023-04-01T07:02:54;98612.84;;;11.30;68.05
65553;BME280;52465;51.560;14.368;2023-04-01T07:05:24;98561.06;;;10.99;68.11
65553;BME280;52465;51.560;14.368;2023-04-01T07:07:57;98614.66;;;11.36;68.26
65553;BME280;52465;51.560;14.368;2023-04-01T07:10:38;98607.41;;;11.31;67.98
65553;BME280;52465;51.560;14.368;2023-04-01T07:13:31;98614.88;;;11.34;68.03
65553;BME280;52465;51.560;14.368;2023-04-01T07:16:12;98583.63;;;11.13;67.91
65553;BME280;52465;51.560;14.368;2023-04-01T07:18:44;98611.44;;;11.34;67.94
65553;BME280;52465;51.560;14.368;2023-04-01T07:21:25;98592.09;;;11.22;68.03
65553;BME280;52465;51.560;14.368;2023-04-01T07:23:54;98581.03;;;11.13;68.08
65553;BME280;52465;51.560;14.368;2023-04-01T07:26:23;98594.09;;;11.20;68.27
65553;BME280;52465;51.560;14.368;2023-04-01T07:28:51;98623.13;;;11.38;68.18
65553;BME280;52465;51.560;14.368;2023-04-01T07:31:39;98619.91;;;11.36;67.98
65553;BME280;52465;51.560;14.368;2023-04-01T07:34:23;98622.31;;;11.37;68.05
65553;BME280;52465;51.560;14.368;2023-04-01T07:37:06;98625.75;;;11.38;68.05
65553;BME280;52465;51.560;14.368;2023-04-01T07:39:45;98625.75;;;11.38;68.13
65553;BME280;52465;51.560;14.368;2023-04-01T07:42:35;98588.47;;;11.16;68.01
65553;BME280;52465;51.560;14.368;2023-04-01T07:48:07;98631.59;;;11.40;68.03
65553;BME280;52465;51.560;14.368;2023-04-01T07:53:35;98627.16;;;11.41;67.90
65553;BME280;52465;51.560;14.368;2023-04-01T07:56:09;98606.59;;;11.24;68.06
65553;BME280;52465;51.560;14.368;2023-04-01T07:59:09;98633.41;;;11.39;68.03
65553;BME280;52465;51.560;14.368;2023-04-01T08:04:53;98633.59;;;11.38;67.92
65553;BME280;52465;51.560;14.368;2023-04-01T08:07:25;98638.25;;;11.43;67.88
65553;BME280;52465;51.560;14.368;2023-04-01T08:12:47;98637.84;;;11.46;68.00
65553;BME280;52465;51.560;14.368;2023-04-01T08:15:26;98637.06;;;11.45;68.04
65553;BME280;52465;51.560;14.368;2023-04-01T08:20:59;98649.94;;;11.47;68.11
65553;BME280;52465;51.560;14.368;2023-04-01T08:23:46;98641.28;;;11.46;67.94
65553;BME280;52465;51.560;14.368;2023-04-01T08:26:23;98648.13;;;11.47;68.09
65553;BME280;52465;51.560;14.368;2023-04-01T08:28:59;98650.53;;;11.49;68.12
65553;BME280;52465;51.560;14.368;2023-04-01T08:31:40;98644.06;;;11.45;68.01
65553;BME280;52465;51.560;14.368;2023-04-01T08:34:16;98651.16;;;11.51;68.19
65553;BME280;52465;51.560;14.368;2023-04-01T08:36:50;98648.94;;;11.48;68.01
65553;BME280;52465;51.560;14.368;2023-04-01T08:39:29;98659.03;;;11.51;67.97
65553;BME280;52465;51.560;14.368;2023-04-01T08:42:23;98654.59;;;11.51;68.22
65553;BME280;52465;51.560;14.368;2023-04-01T08:45:20;98639.47;;;11.47;67.85
65553;BME280;52465;51.560;14.368;2023-04-01T08:56:20;98653.16;;;11.55;68.24
65553;BME280;52465;51.560;14.368;2023-04-01T08:58:55;98653.16;;;11.55;68.02
65553;BME280;52465;51.560;14.368;2023-04-01T09:02:14;98653.94;;;11.56;68.05
65553;BME280;52465;51.560;14.368;2023-04-01T09:13:19;98666.66;;;11.59;68.10
65553;BME280;52465;51.560;14.368;2023-04-01T09:16:19;98671.91;;;11.59;68.04
65553;BME280;52465;51.560;14.368;2023-04-01T09:27:20;98682.59;;;11.64;68.15
65553;BME280;52465;51.560;14.368;2023-04-01T09:32:46;98684.81;;;11.80;67.67
65553;BME280;52465;51.560;14.368;2023-04-01T09:35:38;98669.47;;;11.77;67.43
65553;BME280;52465;51.560;14.368;2023-04-01T09:40:54;98690.88;;;11.94;67.64
65553;BME280;52465;51.560;14.368;2023-04-01T09:44:00;98683.59;;;11.89;67.70
65553;BME280;52465;51.560;14.368;2023-04-01T09:46:53;98684.44;;;11.90;67.68
65553;BME280;52465;51.560;14.368;2023-04-01T10:00:55;98698.75;;;11.87;67.57
65553;BME280;52465;51.560;14.368;2023-04-01T10:03:34;98704.78;;;11.88;67.52
65553;BME280;52465;51.560;14.368;2023-04-01T10:06:45;98711.84;;;11.87;67.78
65553;BME280;52465;51.560;14.368;2023-04-01T10:21:05;98705.81;;;11.87;67.94
65553;BME280;52465;51.560;14.368;2023-04-01T10:24:00;98712.44;;;11.89;67.64
65553;BME280;52465;51.560;14.368;2023-04-01T10:27:06;98708.22;;;11.88;67.67
65553;BME280;52465;51.560;14.368;2023-04-01T10:35:23;98703.41;;;11.85;67.62
65553;BME280;52465;51.560;14.368;2023-04-01T10:38:19;98704.19;;;11.86;67.84
65553;BME280;52465;51.560;14.368;2023-04-01T10:41:10;98712.28;;;11.91;67.55
65553;BME280;52465;51.560;14.368;2023-04-01T10:47:18;98715.69;;;11.91;67.63
65553;BME280;52465;51.560;14.368;2023-04-01T10:53:03;98707.63;;;11.93;67.86
65553;BME280;52465;51.560;14.368;2023-04-01T10:55:42;98712.66;;;11.95;67.83
65553;BME280;52465;51.560;14.368;2023-04-01T11:10:18;98702.97;;;11.95;67.81
65553;BME280;52465;51.560;14.368;2023-04-01T11:13:16;98700.16;;;11.97;67.84
65553;BME280;52465;51.560;14.368;2023-04-01T11:16:08;98704.19;;;11.99;67.59
65553;BME280;52465;51.560;14.368;2023-04-01T11:21:43;98711.66;;;12.02;67.52
65553;BME280;52465;51.560;14.368;2023-04-01T11:29:57;98705.81;;;12.07;67.67
65553;BME280;52465;51.560;14.368;2023-04-01T11:32:41;98715.28;;;12.08;67.59
65553;BME280;52465;51.560;14.368;2023-04-01T11:38:07;98715.06;;;12.09;67.71
65553;BME280;52465;51.560;14.368;2023-04-01T11:48:38;98724.34;;;12.12;67.61
65553;BME280;52465;51.560;14.368;2023-04-01T11:51:28;98725.97;;;12.13;67.68
65553;BME280;52465;51.560;14.368;2023-04-01T11:54:24;98723.34;;;12.13;67.78
65553;BME280;52465;51.560;14.368;2023-04-01T12:05:42;98734.44;;;12.15;67.51
65553;BME280;52465;51.560;14.368;2023-04-01T12:08:23;98737.84;;;12.15;67.77
65553;BME280;52465;51.560;14.368;2023-04-01T12:11:16;98723.94;;;12.15;67.30
65553;BME280;52465;51.560;14.368;2023-04-01T12:16:36;98725.16;;;12.12;67.61
65553;BME280;52465;51.560;14.368;2023-04-01T12:27:23;98732.59;;;12.22;67.41
65553;BME280;52465;51.560;14.368;2023-04-01T12:32:40;98732.19;;;12.25;67.50
65553;BME280;52465;51.560;14.368;2023-04-01T12:35:20;98729.16;;;12.28;67.70
65553;BME280;52465;51.560;14.368;2023-04-01T12:37:57;98727.16;;;12.30;67.49
65553;BME280;52465;51.560;14.368;2023-04-01T12:46:39;98722.28;;;12.34;67.30
65553;BME280;52465;51.560;14.368;2023-04-01T12:49:34;98729.75;;;12.37;67.29
65553;BME280;52465;51.560;14.368;2023-04-01T12:57:32;98735.41;;;12.40;67.05
65553;BME280;52465;51.560;14.368;2023-04-01T13:00:16;98735.19;;;12.42;67.42
65553;BME280;52465;51.560;14.368;2023-04-01T13:11:02;98722.28;;;12.34;67.43
65553;BME280;52465;51.560;14.368;2023-04-01T13:17:10;98745.09;;;12.47;67.18
65553;BME280;52465;51.560;14.368;2023-04-01T13:20:02;98737.59;;;12.43;67.38
65553;BME280;52465;51.560;14.368;2023-04-01T13:25:51;98742.84;;;12.50;66.84
65553;BME280;52465;51.560;14.368;2023-04-01T13:28:25;98746.88;;;12.53;67.24
65553;BME280;52465;51.560;14.368;2023-04-01T13:34:15;98742.44;;;12.53;67.00
65553;BME280;52465;51.560;14.368;2023-04-01T13:39:44;98765.03;;;12.61;66.84
65553;BME280;52465;51.560;14.368;2023-04-01T13:50:48;98763.38;;;12.66;66.81
65553;BME280;52465;51.560;14.368;2023-04-01T13:53:51;98765.63;;;12.69;67.03
65553;BME280;52465;51.560;14.368;2023-04-01T13:59:31;98760.16;;;12.71;67.01
65553;BME280;52465;51.560;14.368;2023-04-01T14:04:47;98763.59;;;12.71;66.58
65553;BME280;52465;51.560;14.368;2023-04-01T14:10:40;98772.25;;;12.72;67.09
65553;BME280;52465;51.560;14.368;2023-04-01T14:13:46;98773.88;;;12.73;66.80
65553;BME280;52465;51.560;14.368;2023-04-01T14:16:51;98773.88;;;12.73;66.86
65553;BME280;52465;51.560;14.368;2023-04-01T14:22:32;98771.88;;;12.68;67.04
65553;BME280;52465;51.560;14.368;2023-04-01T14:28:56;98780.94;;;12.73;66.62
65553;BME280;52465;51.560;14.368;2023-04-01T14:31:37;98753.31;;;12.57;67.15
65553;BME280;52465;51.560;14.368;2023-04-01T14:34:34;98778.31;;;12.73;66.68
65553;BME280;52465;51.560;14.368;2023-04-01T14:45:20;98778.94;;;12.75;66.94
65553;BME280;52465;51.560;14.368;2023-04-01T14:50:29;98772.69;;;12.69;66.76
65553;BME280;52465;51.560;14.368;2023-04-01T14:52:59;98795.69;;;12.80;67.03
65553;BME280;52465;51.560;14.368;2023-04-01T14:58:45;98799.13;;;12.81;66.80
65553;BME280;52465;51.560;14.368;2023-04-01T15:03:53;98794.25;;;12.78;66.86
65553;BME280;52465;51.560;14.368;2023-04-01T15:09:55;98802.75;;;12.73;67.08
65553;BME280;52465;51.560;14.368;2023-04-01T15:12:41;98819.09;;;12.82;66.60
65553;BME280;52465;51.560;14.368;2023-04-01T15:15:24;98826.19;;;12.81;66.50
65553;BME280;52465;51.560;14.368;2023-04-01T15:18:08;98834.06;;;12.81;66.83
65553;BME280;52465;51.560;14.368;2023-04-01T15:23:41;98839.31;;;12.81;66.79
65553;BME280;52465;51.560;14.368;2023-04-01T15:26:32;98834.06;;;12.81;66.96
65553;BME280;52465;51.560;14.368;2023-04-01T15:36:56;98835.25;;;12.79;66.81
65553;BME280;52465;51.560;14.368;2023-04-01T15:45:35;98855.47;;;12.78;67.00
65553;BME280;52465;51.560;14.368;2023-04-01T15:48:25;98862.53;;;12.78;67.23
65553;BME280;52465;51.560;14.368;2023-04-01T15:53:35;98871.66;;;12.75;66.86
65553;BME280;52465;51.560;14.368;2023-04-01T15:56:18;98838.53;;;12.54;66.93
65553;BME280;52465;51.560;14.368;2023-04-01T15:59:22;98876.50;;;12.71;67.14
65553;BME280;52465;51.560;14.368;2023-04-01T16:02:07;98881.13;;;12.76;67.17
65553;BME280;52465;51.560;14.368;2023-04-01T16:04:59;98887.78;;;12.79;66.99
65553;BME280;52465;51.560;14.368;2023-04-01T16:07:47;98888.22;;;12.76;67.18
65553;BME280;52465;51.560;14.368;2023-04-01T16:13:24;98898.72;;;12.76;67.31
65553;BME280;52465;51.560;14.368;2023-04-01T16:19:10;98903.56;;;12.72;66.95
65553;BME280;52465;51.560;14.368;2023-04-01T16:21:46;98916.28;;;12.75;67.38
65553;BME280;52465;51.560;14.368;2023-04-01T16:27:08;98896.50;;;12.53;67.30
65553;BME280;52465;51.560;14.368;2023-04-01T16:30:16;98919.09;;;12.74;67.37
65553;BME280;52465;51.560;14.368;2023-04-01T16:32:43;98898.13;;;12.54;67.29
65553;BME280;52465;51.560;14.368;2023-04-01T16:46:27;98933.25;;;12.73;67.40
65553;BME280;52465;51.560;14.368;2023-04-01T16:57:28;98962.13;;;12.73;67.35
65553;BME280;52465;51.560;14.368;2023-04-01T17:02:52;98965.78;;;12.71;67.17
65553;BME280;52465;51.560;14.368;2023-04-01T17:05:22;98965.78;;;12.71;67.14
65553;BME280;52465;51.560;14.368;2023-04-01T17:08:17;98963.75;;;12.74;67.43
65553;BME280;52465;51.560;14.368;2023-04-01T17:13:50;98975.47;;;12.71;67.25
65553;BME280;52465;51.560;14.368;2023-04-01T17:16:30;98986.78;;;12.71;67.12
65553;BME280;52465;51.560;14.368;2023-04-01T17:22:07;98995.88;;;12.69;67.21
65553;BME280;52465;51.560;14.368;2023-04-01T17:25:08;98990.81;;;12.67;67.41
65553;BME280;52465;51.560;14.368;2023-04-01T17:30:26;99009.81;;;12.69;67.43
65553;BME280;52465;51.560;14.368;2023-04-01T17:35:40;98991.41;;;12.56;67.64
65553;BME280;52465;51.560;14.368;2023-04-01T17:43:53;99032.81;;;12.67;67.44
65553;BME280;52465;51.560;14.368;2023-04-01T17:46:33;99023.31;;;12.60;67.63
65553;BME280;52465;51.560;14.368;2023-04-01T17:49:12;99037.09;;;12.68;67.31
65553;BME280;52465;51.560;14.368;2023-04-01T17:55:04;99046.75;;;12.68;67.40
65553;BME280;52465;51.560;14.368;2023-04-01T18:00:26;99053.03;;;12.67;67.30
65553;BME280;52465;51.560;14.368;2023-04-01T18:11:30;99068.38;;;12.63;67.43
65553;BME280;52465;51.560;14.368;2023-04-01T18:17:12;99081.50;;;12.63;67.70
65553;BME280;52465;51.560;14.368;2023-04-01T18:22:33;99080.72;;;12.63;67.67
65553;BME280;52465;51.560;14.368;2023-04-01T18:25:17;99082.50;;;12.62;67.66
65553;BME280;52465;51.560;14.368;2023-04-01T18:27:52;99058.63;;;12.44;67.66
65553;BME280;52465;51.560;14.368;2023-04-01T18:30:26;99069.13;;;12.51;67.72
65553;BME280;52465;51.560;14.368;2023-04-01T18:33:23;99092.59;;;12.59;67.80
65553;BME280;52465;51.560;14.368;2023-04-01T18:36:09;99087.34;;;12.52;67.66
65553;BME280;52465;51.560;14.368;2023-04-01T18:38:49;99076.41;;;12.49;67.70
65553;BME280;52465;51.560;14.368;2023-04-01T18:41:16;99102.91;;;12.60;67.52
65553;BME280;52465;51.560;14.368;2023-04-01T18:47:05;99113.59;;;12.59;67.55
65553;BME280;52465;51.560;14.368;2023-04-01T18:49:43;99116.03;;;12.60;67.38
65553;BME280;52465;51.560;14.368;2023-04-01T18:52:19;99121.47;;;12.59;67.88
65553;BME280;52465;51.560;14.368;2023-04-01T18:57:27;99105.88;;;12.44;67.59
65553;BME280;52465;51.560;14.368;2023-04-01T19:00:44;99136.59;;;12.57;67.52
65553;BME280;52465;51.560;14.368;2023-04-01T19:03:26;99114.56;;;12.44;67.70
65553;BME280;52465;51.560;14.368;2023-04-01T19:06:01;99129.28;;;12.45;67.81
65553;BME280;52465;51.560;14.368;2023-04-01T19:09:09;99150.75;;;12.56;67.59
65553;BME280;52465;51.560;14.368;2023-04-01T19:14:52;99145.03;;;12.45;67.61
65553;BME280;52465;51.560;14.368;2023-04-01T19:19:56;99172.16;;;12.53;67.46
65553;BME280;52465;51.560;14.368;2023-04-01T19:25:27;99163.66;;;12.51;67.52
65553;BME280;52465;51.560;14.368;2023-04-01T19:28:20;99173.97;;;12.52;67.67
65553;BME280;52465;51.560;14.368;2023-04-01T19:33:52;99180.19;;;12.51;67.72
65553;BME280;52465;51.560;14.368;2023-04-01T19:36:46;99179.59;;;12.49;67.50
65553;BME280;52465;51.560;14.368;2023-04-01T19:42:39;99202.03;;;12.52;67.76
65553;BME280;52465;51.560;14.368;2023-04-01T19:45:26;99200.41;;;12.51;67.85